sensor_id;sensor_type;location;lat;lon;timestamp;P1;durP1;ratioP1;P2;durP2;ratioP2
23117;SDS011;11728;50.624;6.014;2023-01-23T00:00:45;399.98;;;50.88;;
23117;SDS011;11728;50.624;6.014;2023-01-23T00:05:59;441.02;;;49.25;;
23117;SDS011;11728;50.624;6.014;2023-01-23T00:11:06;590.17;;;64.97;;
23117;SDS011;11728;50.624;6.014;2023-01-23T00:16:11;470.73;;;51.45;;
23117;SDS011;11728;50.624;6.014;2023-01-23T00:21:14;478.65;;;55.72;;
23117;SDS011;11728;50.624;6.014;2023-01-23T00:26:18;368.05;;;48.13;;
23117;SDS011;11728;50.624;6.014;2023-01-23T00:31:24;490.80;;;55.13;;
23117;SDS011;11728;50.624;6.014;2023-01-23T00:36:27;292.52;;;42.33;;
23117;SDS011;11728;50.624;6.014;2023-01-23T00:41:29;423.27;;;50.72;;
23117;SDS011;11728;50.624;6.014;2023-01-23T00:46:29;406.95;;;48.35;;
23117;SDS011;11728;50.624;6.014;2023-01-23T00:51:30;301.77;;;41.75;;
23117;SDS011;11728;50.624;6.014;2023-01-23T00:56:31;468.13;;;53.05;;
23117;SDS011;11728;50.624;6.014;2023-01-23T01:01:31;449.48;;;51.15;;
23117;SDS011;11728;50.624;6.014;2023-01-23T01:06:32;327.60;;;43.65;;
23117;SDS011;11728;50.624;6.014;2023-01-23T01:11:33;328.48;;;45.35;;
23117;SDS011;11728;50.624;6.014;2023-01-23T01:16:33;246.93;;;36.72;;
23117;SDS011;11728;50.624;6.014;2023-01-23T01:21:35;345.05;;;44.58;;
23117;SDS011;11728;50.624;6.014;2023-01-23T01:26:36;465.30;;;55.85;;
23117;SDS011;11728;50.624;6.014;2023-01-23T01:31:36;252.15;;;40.05;;
23117;SDS011;11728;50.624;6.014;2023-01-23T01:36:37;390.52;;;49.75;;
23117;SDS011;11728;50.624;6.014;2023-01-23T01:41:37;250.07;;;42.83;;
23117;SDS011;11728;50.624;6.014;2023-01-23T01:46:38;294.98;;;43.92;;
23117;SDS011;11728;50.624;6.014;2023-01-23T01:51:49;460.42;;;53.80;;
23117;SDS011;11728;50.624;6.014;2023-01-23T01:56:53;221.20;;;36.03;;
23117;SDS011;11728;50.624;6.014;2023-01-23T02:02:20;287.55;;;42.55;;
23117;SDS011;11728;50.624;6.014;2023-01-23T02:12:45;228.90;;;39.28;;
23117;SDS011;11728;50.624;6.014;2023-01-23T02:17:48;278.25;;;41.08;;
23117;SDS011;11728;50.624;6.014;2023-01-23T02:23:04;346.73;;;46.78;;
23117;SDS011;11728;50.624;6.014;2023-01-23T02:28:11;215.57;;;39.80;;
23117;SDS011;11728;50.624;6.014;2023-01-23T02:38:19;92.88;;;30.75;;
23117;SDS011;11728;50.624;6.014;2023-01-23T02:43:25;148.27;;;36.33;;
23117;SDS011;11728;50.624;6.014;2023-01-23T02:53:36;218.32;;;41.00;;
23117;SDS011;11728;50.624;6.014;2023-01-23T02:58:37;138.70;;;33.88;;
23117;SDS011;11728;50.624;6.014;2023-01-23T03:03:56;152.02;;;28.75;;
23117;SDS011;11728;50.624;6.014;2023-01-23T03:08:56;262.85;;;42.25;;
23117;SDS011;11728;50.624;6.014;2023-01-23T03:13:59;266.20;;;42.70;;
23117;SDS011;11728;50.624;6.014;2023-01-23T03:19:01;190.68;;;38.30;;
23117;SDS011;11728;50.624;6.014;2023-01-23T03:24:06;177.00;;;35.58;;
23117;SDS011;11728;50.624;6.014;2023-01-23T03:29:18;202.10;;;39.10;;
23117;SDS011;11728;50.624;6.014;2023-01-23T03:34:43;188.35;;;39.95;;
23117;SDS011;11728;50.624;6.014;2023-01-23T03:39:44;126.90;;;32.90;;
23117;SDS011;11728;50.624;6.014;2023-01-23T03:45:05;140.85;;;35.03;;
23117;SDS011;11728;50.624;6.014;2023-01-23T03:50:08;116.35;;;33.97;;
23117;SDS011;11728;50.624;6.014;2023-01-23T03:55:11;71.35;;;30.63;;
23117;SDS011;11728;50.624;6.014;2023-01-23T04:00:13;62.78;;;29.75;;
23117;SDS011;11728;50.624;6.014;2023-01-23T04:05:36;57.15;;;26.50;;
23117;SDS011;11728;50.624;6.014;2023-01-23T04:10:38;54.05;;;26.13;;
23117;SDS011;11728;50.624;6.014;2023-01-23T04:15:46;46.17;;;24.40;;
23117;SDS011;11728;50.624;6.014;2023-01-23T04:20:48;40.55;;;20.95;;
23117;SDS011;11728;50.624;6.014;2023-01-23T04:25:49;34.30;;;19.27;;
23117;SDS011;11728;50.624;6.014;2023-01-23T04:30:51;37.83;;;20.30;;
23117;SDS011;11728;50.624;6.014;2023-01-23T04:35:59;41.40;;;23.40;;
23117;SDS011;11728;50.624;6.014;2023-01-23T04:41:03;44.28;;;21.63;;
23117;SDS011;11728;50.624;6.014;2023-01-23T04:46:07;40.15;;;21.17;;
23117;SDS011;11728;50.624;6.014;2023-01-23T04:51:25;38.47;;;20.85;;
23117;SDS011;11728;50.624;6.014;2023-01-23T04:56:26;43.80;;;22.42;;
23117;SDS011;11728;50.624;6.014;2023-01-23T05:01:27;41.85;;;21.58;;
23117;SDS011;11728;50.624;6.014;2023-01-23T05:06:32;37.90;;;20.85;;
23117;SDS011;11728;50.624;6.014;2023-01-23T05:11:33;36.10;;;20.48;;
23117;SDS011;11728;50.624;6.014;2023-01-23T05:16:34;38.20;;;21.17;;
23117;SDS011;11728;50.624;6.014;2023-01-23T05:21:52;40.88;;;21.15;;
23117;SDS011;11728;50.624;6.014;2023-01-23T05:26:54;44.90;;;21.98;;
23117;SDS011;11728;50.624;6.014;2023-01-23T05:31:55;42.55;;;21.50;;
23117;SDS011;11728;50.624;6.014;2023-01-23T05:37:10;37.65;;;20.95;;
23117;SDS011;11728;50.624;6.014;2023-01-23T05:42:12;41.42;;;22.10;;
23117;SDS011;11728;50.624;6.014;2023-01-23T05:47:16;40.03;;;21.77;;
23117;SDS011;11728;50.624;6.014;2023-01-23T05:52:17;39.53;;;20.98;;
23117;SDS011;11728;50.624;6.014;2023-01-23T05:57:17;33.88;;;19.52;;
23117;SDS011;11728;50.624;6.014;2023-01-23T06:02:38;42.42;;;20.30;;
23117;SDS011;11728;50.624;6.014;2023-01-23T06:07:39;38.55;;;20.38;;
23117;SDS011;11728;50.624;6.014;2023-01-23T06:12:42;34.67;;;19.88;;
23117;SDS011;11728;50.624;6.014;2023-01-23T06:17:42;35.00;;;19.88;;
23117;SDS011;11728;50.624;6.014;2023-01-23T06:22:43;38.38;;;20.58;;
23117;SDS011;11728;50.624;6.014;2023-01-23T06:27:46;35.85;;;20.77;;
23117;SDS011;11728;50.624;6.014;2023-01-23T06:32:47;37.00;;;21.10;;
23117;SDS011;11728;50.624;6.014;2023-01-23T06:37:52;41.65;;;21.65;;
23117;SDS011;11728;50.624;6.014;2023-01-23T06:42:54;39.05;;;20.67;;
23117;SDS011;11728;50.624;6.014;2023-01-23T06:47:56;42.60;;;23.08;;
23117;SDS011;11728;50.624;6.014;2023-01-23T06:52:56;43.22;;;22.35;;
23117;SDS011;11728;50.624;6.014;2023-01-23T06:58:00;37.90;;;22.27;;
23117;SDS011;11728;50.624;6.014;2023-01-23T07:03:01;41.40;;;22.85;;
23117;SDS011;11728;50.624;6.014;2023-01-23T07:08:05;42.65;;;22.08;;
23117;SDS011;11728;50.624;6.014;2023-01-23T07:13:08;47.95;;;24.15;;
23117;SDS011;11728;50.624;6.014;2023-01-23T07:18:10;40.50;;;22.23;;
23117;SDS011;11728;50.624;6.014;2023-01-23T07:23:11;42.28;;;22.75;;
23117;SDS011;11728;50.624;6.014;2023-01-23T07:28:12;48.33;;;23.70;;
23117;SDS011;11728;50.624;6.014;2023-01-23T07:33:12;48.95;;;25.40;;
23117;SDS011;11728;50.624;6.014;2023-01-23T07:38:13;50.22;;;24.60;;
23117;SDS011;11728;50.624;6.014;2023-01-23T07:43:13;53.78;;;24.83;;
23117;SDS011;11728;50.624;6.014;2023-01-23T07:48:14;48.55;;;24.00;;
23117;SDS011;11728;50.624;6.014;2023-01-23T07:53:14;49.58;;;25.70;;
23117;SDS011;11728;50.624;6.014;2023-01-23T07:58:14;44.20;;;23.92;;
23117;SDS011;11728;50.624;6.014;2023-01-23T08:03:15;40.17;;;22.50;;
23117;SDS011;11728;50.624;6.014;2023-01-23T08:08:16;41.17;;;22.13;;
23117;SDS011;11728;50.624;6.014;2023-01-23T08:13:16;41.03;;;22.50;;
23117;SDS011;11728;50.624;6.014;2023-01-23T08:18:16;40.80;;;22.50;;
23117;SDS011;11728;50.624;6.014;2023-01-23T08:23:17;35.55;;;20.70;;
23117;SDS011;11728;50.624;6.014;2023-01-23T08:28:18;37.97;;;22.08;;
23117;SDS011;11728;50.624;6.014;2023-01-23T08:33:19;36.65;;;21.00;;
23117;SDS011;11728;50.624;6.014;2023-01-23T08:38:20;41.13;;;22.98;;
23117;SDS011;11728;50.624;6.014;2023-01-23T08:43:21;36.78;;;21.67;;
23117;SDS011;11728;50.624;6.014;2023-01-23T08:48:22;35.30;;;21.27;;
23117;SDS011;11728;50.624;6.014;2023-01-23T08:53:23;39.22;;;21.98;;
23117;SDS011;11728;50.624;6.014;2023-01-23T08:58:24;38.70;;;21.52;;
23117;SDS011;11728;50.624;6.014;2023-01-23T09:03:25;35.95;;;20.20;;
23117;SDS011;11728;50.624;6.014;2023-01-23T09:08:26;38.00;;;22.02;;
23117;SDS011;11728;50.624;6.014;2023-01-23T09:13:27;35.88;;;21.45;;
23117;SDS011;11728;50.624;6.014;2023-01-23T09:18:27;36.83;;;20.67;;
23117;SDS011;11728;50.624;6.014;2023-01-23T09:23:29;39.58;;;21.35;;
23117;SDS011;11728;50.624;6.014;2023-01-23T09:28:29;35.35;;;20.60;;
23117;SDS011;11728;50.624;6.014;2023-01-23T09:33:30;35.22;;;20.27;;
23117;SDS011;11728;50.624;6.014;2023-01-23T09:38:31;37.40;;;20.73;;
23117;SDS011;11728;50.624;6.014;2023-01-23T09:43:36;37.20;;;19.80;;
23117;SDS011;11728;50.624;6.014;2023-01-23T09:48:42;33.33;;;19.40;;
23117;SDS011;11728;50.624;6.014;2023-01-23T09:53:44;34.38;;;20.95;;
23117;SDS011;11728;50.624;6.014;2023-01-23T09:58:47;30.30;;;18.95;;
23117;SDS011;11728;50.624;6.014;2023-01-23T10:03:59;39.47;;;25.52;;
23117;SDS011;11728;50.624;6.014;2023-01-23T10:25:15;29.17;;;17.63;;
23117;SDS011;11728;50.624;6.014;2023-01-23T10:30:30;28.10;;;17.95;;
23117;SDS011;11728;50.624;6.014;2023-01-23T10:40:39;29.30;;;18.65;;
23117;SDS011;11728;50.624;6.014;2023-01-23T10:45:58;26.90;;;17.35;;
23117;SDS011;11728;50.624;6.014;2023-01-23T10:50:59;30.48;;;18.48;;
23117;SDS011;11728;50.624;6.014;2023-01-23T10:55:59;29.70;;;19.13;;
23117;SDS011;11728;50.624;6.014;2023-01-23T11:01:00;24.80;;;16.25;;
23117;SDS011;11728;50.624;6.014;2023-01-23T11:06:08;31.23;;;19.17;;
23117;SDS011;11728;50.624;6.014;2023-01-23T11:11:29;27.90;;;17.20;;
23117;SDS011;11728;50.624;6.014;2023-01-23T11:16:31;27.88;;;17.23;;
23117;SDS011;11728;50.624;6.014;2023-01-23T11:21:33;28.00;;;17.90;;
23117;SDS011;11728;50.624;6.014;2023-01-23T11:26:36;26.95;;;17.60;;
23117;SDS011;11728;50.624;6.014;2023-01-23T11:31:37;25.17;;;14.95;;
23117;SDS011;11728;50.624;6.014;2023-01-23T11:36:44;35.30;;;21.58;;
23117;SDS011;11728;50.624;6.014;2023-01-23T11:42:07;42.13;;;24.35;;
23117;SDS011;11728;50.624;6.014;2023-01-23T12:14:21;23.85;;;15.10;;
23117;SDS011;11728;50.624;6.014;2023-01-23T12:19:26;22.17;;;13.95;;
23117;SDS011;11728;50.624;6.014;2023-01-23T12:29:50;22.13;;;13.67;;
23117;SDS011;11728;50.624;6.014;2023-01-23T12:34:58;22.43;;;14.80;;
23117;SDS011;11728;50.624;6.014;2023-01-23T12:45:30;31.30;;;17.95;;
23117;SDS011;11728;50.624;6.014;2023-01-23T12:56:03;38.00;;;20.02;;
23117;SDS011;11728;50.624;6.014;2023-01-23T13:01:23;30.42;;;18.15;;
23117;SDS011;11728;50.624;6.014;2023-01-23T13:06:43;35.13;;;19.00;;
23117;SDS011;11728;50.624;6.014;2023-01-23T13:12:20;30.38;;;18.95;;
23117;SDS011;11728;50.624;6.014;2023-01-23T13:22:50;28.63;;;16.95;;
23117;SDS011;11728;50.624;6.014;2023-01-23T13:27:52;72.07;;;41.90;;
23117;SDS011;11728;50.624;6.014;2023-01-23T13:32:57;33.42;;;18.90;;
23117;SDS011;11728;50.624;6.014;2023-01-23T13:38:25;28.13;;;18.33;;
23117;SDS011;11728;50.624;6.014;2023-01-23T13:48:51;36.20;;;21.45;;
23117;SDS011;11728;50.624;6.014;2023-01-23T13:54:26;31.23;;;18.17;;
23117;SDS011;11728;50.624;6.014;2023-01-23T13:59:49;41.33;;;24.17;;
23117;SDS011;11728;50.624;6.014;2023-01-23T14:04:55;39.90;;;24.70;;
23117;SDS011;11728;50.624;6.014;2023-01-23T14:10:17;31.75;;;19.65;;
23117;SDS011;11728;50.624;6.014;2023-01-23T14:15:24;35.47;;;21.85;;
23117;SDS011;11728;50.624;6.014;2023-01-23T14:20:44;27.27;;;18.25;;
23117;SDS011;11728;50.624;6.014;2023-01-23T14:25:46;25.60;;;16.73;;
23117;SDS011;11728;50.624;6.014;2023-01-23T14:35:53;21.83;;;14.52;;
23117;SDS011;11728;50.624;6.014;2023-01-23T14:40:57;21.50;;;14.05;;
23117;SDS011;11728;50.624;6.014;2023-01-23T14:46:04;22.83;;;14.68;;
23117;SDS011;11728;50.624;6.014;2023-01-23T14:51:14;20.80;;;13.52;;
23117;SDS011;11728;50.624;6.014;2023-01-23T14:56:18;21.60;;;13.50;;
23117;SDS011;11728;50.624;6.014;2023-01-23T15:01:22;24.65;;;15.43;;
23117;SDS011;11728;50.624;6.014;2023-01-23T15:06:23;26.05;;;15.65;;
23117;SDS011;11728;50.624;6.014;2023-01-23T15:11:24;30.52;;;17.70;;
23117;SDS011;11728;50.624;6.014;2023-01-23T15:16:31;30.33;;;17.25;;
23117;SDS011;11728;50.624;6.014;2023-01-23T15:21:38;28.08;;;16.52;;
23117;SDS011;11728;50.624;6.014;2023-01-23T15:26:44;37.90;;;19.23;;
23117;SDS011;11728;50.624;6.014;2023-01-23T15:31:56;38.22;;;19.92;;
23117;SDS011;11728;50.624;6.014;2023-01-23T15:47:10;42.38;;;24.15;;
23117;SDS011;11728;50.624;6.014;2023-01-23T15:52:28;35.15;;;19.08;;
23117;SDS011;11728;50.624;6.014;2023-01-23T15:57:48;37.30;;;19.92;;
23117;SDS011;11728;50.624;6.014;2023-01-23T16:02:48;36.15;;;20.48;;
23117;SDS011;11728;50.624;6.014;2023-01-23T16:07:51;51.55;;;26.45;;
23117;SDS011;11728;50.624;6.014;2023-01-23T16:12:53;39.25;;;19.95;;
23117;SDS011;11728;50.624;6.014;2023-01-23T16:17:56;31.35;;;18.50;;
23117;SDS011;11728;50.624;6.014;2023-01-23T16:22:57;41.22;;;22.27;;
23117;SDS011;11728;50.624;6.014;2023-01-23T16:27:59;34.17;;;18.45;;
23117;SDS011;11728;50.624;6.014;2023-01-23T16:33:00;32.17;;;17.60;;
23117;SDS011;11728;50.624;6.014;2023-01-23T16:38:00;32.40;;;15.82;;
23117;SDS011;11728;50.624;6.014;2023-01-23T16:43:01;24.85;;;15.27;;
23117;SDS011;11728;50.624;6.014;2023-01-23T16:48:02;33.03;;;20.13;;
23117;SDS011;11728;50.624;6.014;2023-01-23T16:53:07;25.90;;;15.02;;
23117;SDS011;11728;50.624;6.014;2023-01-23T16:58:17;31.48;;;17.75;;
23117;SDS011;11728;50.624;6.014;2023-01-23T17:03:21;20.75;;;13.60;;
23117;SDS011;11728;50.624;6.014;2023-01-23T17:08:28;21.58;;;13.30;;
23117;SDS011;11728;50.624;6.014;2023-01-23T17:13:29;18.77;;;11.43;;
23117;SDS011;11728;50.624;6.014;2023-01-23T17:18:33;20.67;;;13.68;;
23117;SDS011;11728;50.624;6.014;2023-01-23T17:23:35;23.40;;;13.90;;
23117;SDS011;11728;50.624;6.014;2023-01-23T17:28:36;18.30;;;12.70;;
23117;SDS011;11728;50.624;6.014;2023-01-23T17:33:36;22.13;;;13.98;;
23117;SDS011;11728;50.624;6.014;2023-01-23T17:38:37;25.48;;;15.68;;
23117;SDS011;11728;50.624;6.014;2023-01-23T17:43:38;29.05;;;16.45;;
23117;SDS011;11728;50.624;6.014;2023-01-23T17:48:40;86.82;;;33.15;;
23117;SDS011;11728;50.624;6.014;2023-01-23T17:53:40;72.43;;;28.25;;
23117;SDS011;11728;50.624;6.014;2023-01-23T17:58:41;18.63;;;12.05;;
23117;SDS011;11728;50.624;6.014;2023-01-23T18:03:42;21.48;;;13.82;;
23117;SDS011;11728;50.624;6.014;2023-01-23T18:08:42;19.75;;;12.80;;
23117;SDS011;11728;50.624;6.014;2023-01-23T18:13:57;23.08;;;14.85;;
23117;SDS011;11728;50.624;6.014;2023-01-23T18:19:04;20.20;;;12.85;;
23117;SDS011;11728;50.624;6.014;2023-01-23T18:39:58;32.92;;;21.05;;
23117;SDS011;11728;50.624;6.014;2023-01-23T18:45:09;31.67;;;21.15;;
23117;SDS011;11728;50.624;6.014;2023-01-23T18:50:15;39.33;;;23.40;;
23117;SDS011;11728;50.624;6.014;2023-01-23T19:00:43;41.33;;;23.25;;
23117;SDS011;11728;50.624;6.014;2023-01-23T19:05:44;39.75;;;22.27;;
23117;SDS011;11728;50.624;6.014;2023-01-23T19:10:45;58.28;;;31.23;;
23117;SDS011;11728;50.624;6.014;2023-01-23T19:21:31;41.63;;;24.88;;
23117;SDS011;11728;50.624;6.014;2023-01-23T19:26:33;36.15;;;21.13;;
23117;SDS011;11728;50.624;6.014;2023-01-23T19:31:36;36.72;;;22.55;;
23117;SDS011;11728;50.624;6.014;2023-01-23T19:36:38;34.58;;;21.52;;
23117;SDS011;11728;50.624;6.014;2023-01-23T19:41:45;39.20;;;21.52;;
23117;SDS011;11728;50.624;6.014;2023-01-23T19:46:47;30.52;;;18.15;;
23117;SDS011;11728;50.624;6.014;2023-01-23T19:51:48;53.13;;;27.13;;
23117;SDS011;11728;50.624;6.014;2023-01-23T19:56:48;42.28;;;21.67;;
23117;SDS011;11728;50.624;6.014;2023-01-23T20:01:49;40.30;;;22.38;;
23117;SDS011;11728;50.624;6.014;2023-01-23T20:06:51;27.95;;;17.38;;
23117;SDS011;11728;50.624;6.014;2023-01-23T20:11:52;28.63;;;17.52;;
23117;SDS011;11728;50.624;6.014;2023-01-23T20:16:52;32.58;;;20.95;;
23117;SDS011;11728;50.624;6.014;2023-01-23T20:21:53;30.20;;;18.40;;
23117;SDS011;11728;50.624;6.014;2023-01-23T20:26:53;29.27;;;17.67;;
23117;SDS011;11728;50.624;6.014;2023-01-23T20:31:54;37.90;;;24.95;;
23117;SDS011;11728;50.624;6.014;2023-01-23T20:36:55;31.20;;;18.73;;
23117;SDS011;11728;50.624;6.014;2023-01-23T20:41:55;34.10;;;21.52;;
23117;SDS011;11728;50.624;6.014;2023-01-23T20:46:55;34.85;;;21.83;;
23117;SDS011;11728;50.624;6.014;2023-01-23T20:51:56;32.75;;;20.95;;
23117;SDS011;11728;50.624;6.014;2023-01-23T20:57:16;30.77;;;19.63;;
23117;SDS011;11728;50.624;6.014;2023-01-23T21:02:17;40.30;;;25.45;;
23117;SDS011;11728;50.624;6.014;2023-01-23T21:07:24;30.45;;;20.77;;
23117;SDS011;11728;50.624;6.014;2023-01-23T21:12:27;35.58;;;22.00;;
23117;SDS011;11728;50.624;6.014;2023-01-23T21:17:27;30.27;;;18.77;;
23117;SDS011;11728;50.624;6.014;2023-01-23T21:22:27;26.35;;;16.73;;
23117;SDS011;11728;50.624;6.014;2023-01-23T21:27:28;28.13;;;17.77;;
23117;SDS011;11728;50.624;6.014;2023-01-23T21:32:29;24.23;;;15.35;;
23117;SDS011;11728;50.624;6.014;2023-01-23T21:37:29;23.98;;;14.88;;
23117;SDS011;11728;50.624;6.014;2023-01-23T21:42:29;21.90;;;14.43;;
23117;SDS011;11728;50.624;6.014;2023-01-23T21:47:30;22.35;;;15.00;;
23117;SDS011;11728;50.624;6.014;2023-01-23T21:52:30;22.65;;;14.80;;
23117;SDS011;11728;50.624;6.014;2023-01-23T21:57:31;20.02;;;13.25;;
23117;SDS011;11728;50.624;6.014;2023-01-23T22:02:31;20.20;;;13.50;;
23117;SDS011;11728;50.624;6.014;2023-01-23T22:07:32;21.23;;;13.43;;
23117;SDS011;11728;50.624;6.014;2023-01-23T22:12:32;23.75;;;15.10;;
23117;SDS011;11728;50.624;6.014;2023-01-23T22:17:33;21.65;;;12.73;;
23117;SDS011;11728;50.624;6.014;2023-01-23T22:22:33;22.13;;;14.13;;
23117;SDS011;11728;50.624;6.014;2023-01-23T22:27:34;17.45;;;12.55;;
23117;SDS011;11728;50.624;6.014;2023-01-23T22:32:34;15.48;;;10.32;;
23117;SDS011;11728;50.624;6.014;2023-01-23T22:37:35;20.98;;;13.30;;
23117;SDS011;11728;50.624;6.014;2023-01-23T22:42:36;18.88;;;12.63;;
23117;SDS011;11728;50.624;6.014;2023-01-23T22:47:36;18.38;;;11.65;;
23117;SDS011;11728;50.624;6.014;2023-01-23T22:52:37;18.63;;;12.38;;
23117;SDS011;11728;50.624;6.014;2023-01-23T22:57:37;19.73;;;13.20;;
23117;SDS011;11728;50.624;6.014;2023-01-23T23:02:38;20.13;;;13.10;;
23117;SDS011;11728;50.624;6.014;2023-01-23T23:07:39;19.60;;;12.15;;
23117;SDS011;11728;50.624;6.014;2023-01-23T23:12:39;16.27;;;11.13;;
23117;SDS011;11728;50.624;6.014;2023-01-23T23:17:40;18.10;;;11.75;;
23117;SDS011;11728;50.624;6.014;2023-01-23T23:22:41;20.75;;;12.70;;
23117;SDS011;11728;50.624;6.014;2023-01-23T23:27:42;16.63;;;10.95;;
23117;SDS011;11728;50.624;6.014;2023-01-23T23:32:42;18.83;;;12.27;;
23117;SDS011;11728;50.624;6.014;2023-01-23T23:37:43;19.08;;;11.07;;
23117;SDS011;11728;50.624;6.014;2023-01-23T23:42:43;17.40;;;10.93;;
23117;SDS011;11728;50.624;6.014;2023-01-23T23:47:44;17.75;;;11.82;;
23117;SDS011;11728;50.624;6.014;2023-01-23T23:52:44;17.52;;;11.52;;
23117;SDS011;11728;50.624;6.014;2023-01-23T23:57:45;17.13;;;11.75;;
